createdAt,value
2022-11-27T00:01:46.453Z,7.97
2022-11-27T00:06:47.744Z,7.97
2022-11-27T00:11:49.101Z,8.01
2022-11-27T00:16:50.667Z,8.01
2022-11-27T00:21:52.012Z,7.99
2022-11-27T00:26:53.384Z,7.94
2022-11-27T00:31:56.246Z,7.94
2022-11-27T00:36:57.556Z,7.99
2022-11-27T00:41:59.127Z,8.03
2022-11-27T00:47:00.598Z,7.83
2022-11-27T00:52:02.415Z,7.96
2022-11-27T00:57:04.665Z,7.93
2022-11-27T01:02:06.268Z,7.92
2022-11-27T01:07:07.669Z,7.95
2022-11-27T01:12:09.224Z,7.89
2022-11-27T01:17:10.598Z,7.82
2022-11-27T01:22:11.935Z,7.72
2022-11-27T01:27:14.864Z,7.74
2022-11-27T01:32:16.438Z,7.77
2022-11-27T01:37:17.841Z,7.75
2022-11-27T01:42:19.338Z,7.70
2022-11-27T01:47:31.278Z,7.67
2022-11-27T01:52:37.649Z,7.64
2022-11-27T01:57:47.402Z,7.68
2022-11-27T02:02:49.237Z,7.65
2022-11-27T02:07:52.672Z,7.56
2022-11-27T02:13:03.895Z,7.45
2022-11-27T02:18:23.242Z,7.35
2022-11-27T02:23:43.467Z,7.28
2022-11-27T02:29:07.652Z,7.18
2022-11-27T02:34:35.802Z,7.11
2022-11-27T02:39:57.363Z,7.07
2022-11-27T02:45:03.905Z,6.92
2022-11-27T02:50:09.135Z,6.87
2022-11-27T02:55:15.039Z,6.79
2022-11-27T03:00:17.637Z,6.66
2022-11-27T03:05:21.635Z,6.48
2022-11-27T03:10:34.278Z,6.44
2022-11-27T03:15:49.298Z,6.46
2022-11-27T03:20:55.471Z,6.45
2022-11-27T03:25:56.790Z,6.41
2022-11-27T03:30:58.341Z,6.38
2022-11-27T03:35:59.872Z,6.33
2022-11-27T03:41:11.883Z,6.41
2022-11-27T03:46:30.093Z,6.40
2022-11-27T03:52:07.981Z,6.35
2022-11-27T03:57:20.294Z,6.29
2022-11-27T04:02:40.303Z,6.26
2022-11-27T04:07:42.236Z,6.18
2022-11-27T04:12:43.608Z,5.92
2022-11-27T04:17:45.073Z,6.11
2022-11-27T04:22:46.577Z,6.03
2022-11-27T04:27:47.904Z,5.83
2022-11-27T04:32:49.268Z,5.87
2022-11-27T04:37:50.661Z,5.83
2022-11-27T04:42:52.056Z,5.80
2022-11-27T04:47:53.448Z,5.78
2022-11-27T04:52:54.772Z,5.69
2022-11-27T04:57:56.038Z,5.70
2022-11-27T05:02:57.439Z,5.65
2022-11-27T05:07:58.944Z,5.57
2022-11-27T05:13:00.292Z,5.46
2022-11-27T05:18:01.573Z,5.42
2022-11-27T05:23:02.966Z,5.30
2022-11-27T05:28:06.169Z,5.25
2022-11-27T05:33:07.584Z,5.19
2022-11-27T05:38:09.361Z,5.24
2022-11-27T05:43:10.705Z,5.20
2022-11-27T05:48:12.057Z,5.16
2022-11-27T05:53:13.615Z,5.19
2022-11-27T05:58:14.975Z,5.25
2022-11-27T06:03:16.312Z,5.30
2022-11-27T06:08:17.916Z,5.28
2022-11-27T06:13:19.405Z,5.21
2022-11-27T06:18:20.847Z,5.21
2022-11-27T06:23:22.383Z,5.22
2022-11-27T06:28:23.726Z,5.22
2022-11-27T06:33:25.074Z,5.26
2022-11-27T06:38:26.390Z,5.10
2022-11-27T06:43:27.783Z,5.12
2022-11-27T06:48:30.206Z,5.02
2022-11-27T06:53:34.435Z,4.86
2022-11-27T06:58:38.679Z,5.13
2022-11-27T07:03:40.630Z,5.08
2022-11-27T07:08:42.457Z,5.07
2022-11-27T07:13:45.001Z,5.09
2022-11-27T07:18:49.320Z,4.99
2022-11-27T07:23:51.138Z,4.87
2022-11-27T07:28:53.333Z,4.94
2022-11-27T07:33:55.002Z,4.94
2022-11-27T07:38:58.012Z,4.99
2022-11-27T07:43:59.465Z,5.00
2022-11-27T07:49:01.267Z,5.05
2022-11-27T07:54:02.814Z,4.99
2022-11-27T07:59:04.294Z,5.23
2022-11-27T08:04:05.637Z,5.42
2022-11-27T08:09:06.944Z,5.34
2022-11-27T08:14:16.159Z,5.31
2022-11-27T08:19:17.491Z,5.40
2022-11-27T08:24:18.820Z,5.55
2022-11-27T08:29:20.259Z,5.88
2022-11-27T08:34:21.646Z,6.17
2022-11-27T08:39:23.292Z,6.18
2022-11-27T08:44:24.928Z,6.59
2022-11-27T08:49:26.383Z,6.72
2022-11-27T08:54:27.768Z,6.62
2022-11-27T08:59:29.393Z,6.62
2022-11-27T09:04:30.768Z,6.84
2022-11-27T09:09:32.200Z,6.98
2022-11-27T09:14:33.540Z,7.14
2022-11-27T09:19:35.073Z,7.32
2022-11-27T09:24:36.777Z,7.73
2022-11-27T09:29:38.289Z,7.79
2022-11-27T09:34:39.945Z,7.65
2022-11-27T09:39:41.717Z,7.93
2022-11-27T09:44:52.287Z,8.39
2022-11-27T09:49:59.815Z,8.75
2022-11-27T09:55:09.843Z,9.08
2022-11-27T10:00:17.867Z,9.31
2022-11-27T10:05:23.100Z,9.09
2022-11-27T10:10:51.013Z,9.06
2022-11-27T10:16:10.357Z,9.16
2022-11-27T10:21:30.593Z,9.65
2022-11-27T10:27:02.394Z,10.88
2022-11-27T10:32:46.988Z,14.92
2022-11-27T10:37:42.944Z,13.93
2022-11-27T10:43:07.553Z,12.77
2022-11-27T10:48:08.888Z,12.13
2022-11-27T10:53:21.793Z,11.63
2022-11-27T10:58:35.240Z,11.24
2022-11-27T11:03:37.629Z,10.76
2022-11-27T11:08:39.109Z,10.52
2022-11-27T11:13:40.437Z,10.36
2022-11-27T11:18:50.541Z,9.99
2022-11-27T11:24:20.907Z,9.78
2022-11-27T11:29:28.279Z,9.71
2022-11-27T11:34:31.205Z,9.69
2022-11-27T11:39:44.727Z,9.60
2022-11-27T11:44:51.864Z,9.73
2022-11-27T11:49:55.010Z,10.02
2022-11-27T11:55:31.597Z,10.08
2022-11-27T12:01:18.903Z,10.23
2022-11-27T12:06:31.263Z,10.34
2022-11-27T12:11:43.593Z,10.20
2022-11-27T12:16:56.241Z,10.29
2022-11-27T12:21:57.780Z,10.59
2022-11-27T12:27:08.291Z,11.90
2022-11-27T12:32:34.476Z,13.54
2022-11-27T12:37:57.352Z,13.57
2022-11-27T12:43:04.696Z,13.16
2022-11-27T12:48:14.658Z,12.63
2022-11-27T12:53:39.593Z,12.06
2022-11-27T12:58:45.395Z,12.42
2022-11-27T13:04:05.025Z,18.28
2022-11-27T13:09:16.143Z,22.45
2022-11-27T13:14:24.003Z,21.98
2022-11-27T13:19:32.806Z,21.79
2022-11-27T13:24:35.575Z,20.64
2022-11-27T13:29:47.097Z,18.71
2022-11-27T13:34:50.208Z,16.35
2022-11-27T13:40:00.056Z,14.29
2022-11-27T13:45:12.312Z,13.00
2022-11-27T13:50:18.134Z,12.54
2022-11-27T13:55:26.204Z,11.97
2022-11-27T14:00:42.634Z,11.62
2022-11-27T14:05:45.452Z,11.28
2022-11-27T14:11:03.476Z,11.05
2022-11-27T14:16:23.002Z,10.77
2022-11-27T14:21:45.187Z,10.55
2022-11-27T14:26:46.549Z,10.31
2022-11-27T14:31:57.452Z,10.19
2022-11-27T14:37:00.256Z,10.16
2022-11-27T14:42:23.054Z,10.07
2022-11-27T14:47:26.660Z,9.71
2022-11-27T14:52:28.670Z,9.43
2022-11-27T14:57:30.858Z,9.28
2022-11-27T15:02:32.696Z,9.27
2022-11-27T15:07:45.247Z,9.06
2022-11-27T15:12:49.649Z,8.95
2022-11-27T15:17:57.657Z,8.97
2022-11-27T15:23:00.192Z,9.10
2022-11-27T15:28:02.936Z,9.07
2022-11-27T15:33:04.301Z,9.17
2022-11-27T15:38:10.822Z,9.10
2022-11-27T15:43:16.375Z,8.86
2022-11-27T15:48:19.494Z,8.80
2022-11-27T15:53:21.006Z,8.79
2022-11-27T15:58:22.407Z,8.74
2022-11-27T16:03:23.806Z,8.78
2022-11-27T16:08:25.217Z,8.72
2022-11-27T16:13:26.585Z,8.67
2022-11-27T16:18:28.309Z,8.38
2022-11-27T16:23:29.736Z,8.58
2022-11-27T16:28:32.329Z,8.43
2022-11-27T16:33:33.760Z,8.46
2022-11-27T16:38:35.681Z,8.33
2022-11-27T16:43:39.775Z,8.27
2022-11-27T16:48:42.474Z,8.24
2022-11-27T16:53:46.192Z,8.13
2022-11-27T16:58:48.178Z,8.19
2022-11-27T17:03:50.483Z,8.18
2022-11-27T17:08:53.943Z,8.11
2022-11-27T17:14:01.145Z,8.11
2022-11-27T17:19:02.542Z,8.11
2022-11-27T17:24:14.680Z,8.00
2022-11-27T17:29:20.768Z,8.10
2022-11-27T17:34:22.404Z,8.06
2022-11-27T17:39:23.787Z,8.09
2022-11-27T17:44:25.160Z,8.14
2022-11-27T17:49:26.844Z,8.11
2022-11-27T17:54:28.180Z,8.06
2022-11-27T17:59:29.758Z,8.04
2022-11-27T18:04:32.251Z,7.97
2022-11-27T18:09:33.780Z,8.07
2022-11-27T18:14:35.131Z,8.03
2022-11-27T18:19:36.604Z,7.97
2022-11-27T18:24:41.668Z,7.88
2022-11-27T18:29:44.892Z,7.76
2022-11-27T18:34:46.803Z,7.78
2022-11-27T18:39:48.358Z,7.82
2022-11-27T18:44:49.828Z,7.79
2022-11-27T18:49:51.272Z,7.71
2022-11-27T18:54:52.604Z,7.69
2022-11-27T18:59:54.558Z,7.67
2022-11-27T19:04:55.858Z,7.64
2022-11-27T19:09:57.428Z,7.78
2022-11-27T19:14:58.999Z,7.74
2022-11-27T19:20:00.509Z,7.56
2022-11-27T19:25:02.184Z,7.71
2022-11-27T19:30:03.842Z,7.59
2022-11-27T19:35:07.376Z,7.47
2022-11-27T19:40:09.487Z,7.68
2022-11-27T19:45:11.061Z,7.64
2022-11-27T19:50:14.033Z,7.62
2022-11-27T19:55:15.348Z,7.58
2022-11-27T20:00:17.130Z,7.58
2022-11-27T20:05:18.719Z,7.46
2022-11-27T20:10:20.155Z,7.27
2022-11-27T20:15:21.676Z,7.42
2022-11-27T20:20:23.158Z,7.48
2022-11-27T20:25:25.851Z,7.55
2022-11-27T20:30:27.354Z,7.55
2022-11-27T20:35:28.797Z,7.56
2022-11-27T20:40:30.198Z,7.56
2022-11-27T20:45:31.738Z,7.57
2022-11-27T20:50:34.487Z,7.41
2022-11-27T20:55:35.883Z,7.51
2022-11-27T21:00:37.473Z,7.52
2022-11-27T21:05:43.076Z,7.54
2022-11-27T21:10:44.466Z,7.50
2022-11-27T21:15:47.359Z,7.44
2022-11-27T21:20:48.866Z,7.22
2022-11-27T21:25:50.353Z,7.45
2022-11-27T21:30:51.705Z,7.43
2022-11-27T21:35:56.110Z,7.38
2022-11-27T21:40:57.483Z,7.30
2022-11-27T21:46:05.209Z,7.37
2022-11-27T21:51:12.558Z,7.35
2022-11-27T21:56:18.032Z,7.26
2022-11-27T22:01:23.274Z,7.24
2022-11-27T22:06:28.890Z,7.20
2022-11-27T22:11:30.674Z,7.16
2022-11-27T22:16:35.985Z,7.16
2022-11-27T22:21:40.084Z,7.11
2022-11-27T22:26:41.433Z,7.07
2022-11-27T22:31:42.962Z,7.10
2022-11-27T22:36:44.777Z,7.09
2022-11-27T22:41:46.135Z,7.08
2022-11-27T22:46:47.667Z,7.00
2022-11-27T22:51:49.166Z,7.03
2022-11-27T22:56:50.723Z,7.02
2022-11-27T23:01:52.029Z,6.97
2022-11-27T23:06:53.615Z,7.03
2022-11-27T23:11:56.461Z,6.98
2022-11-27T23:16:58.423Z,6.93
2022-11-27T23:21:59.878Z,6.72
2022-11-27T23:27:01.242Z,6.82
2022-11-27T23:32:02.656Z,6.81
2022-11-27T23:37:04.014Z,6.87
2022-11-27T23:42:05.359Z,6.73
2022-11-27T23:47:06.698Z,6.77
2022-11-27T23:52:11.906Z,6.68
2022-11-27T23:57:17.452Z,6.75
